Главная страница
METAR-TAF:

METAR-TAF

Аэропорты :

Кярдла, Эстония

широта: 58-59N, долгота: 022-49E, высота над уровнем моря: 5 м

Текущие метеонаблюдения

Эта сводка был подготовлена 4 часа и 36 минут назад, в 15:20 UTC
Ветер 7 Узел от юго-западный, изменяющийся между юго-восточный и западно-северо-западный
Температура 17°C
Влажность 45%
Давление 1014 hPa
Видимость 10 км и более
небольшая облачность на высоте 4300 фута

METAR: EEKA 131520Z 23007KT 140V300 9999 FEW043 17/05 Q1014

Время: 22:56 (19:56 UTC)

Прогноз

Эта сводка был подготовлена 7 часа и 56 минут назад, в 12:00 UTC
Прогноз действительный с 13-го 13 UTC до 13-го 19 UTC
Ветер 10 Узел от юго-западный
Видимость 10 км и более
Отдельные облака на высоте 3500 фута
временами
С 13-го 13 UTC до 13-го 16 UTC
небольшая облачность на высоте 3000 фута, Кучево-дождевые.
Рассеянная облачность на высоте 3500 фута

TAF: EEKA 131200Z 1313/1319 22010KT 9999 SCT035 TEMPO 1313/1316 FEW030CB BKN035

Метеонаблюдения и прогнозы для более 4000 аэропортов (сводки METAR и TAF).

Имеющиеся станции представлены на карте желтыми и красными точками.

Чтобы увидеть название станции, наведите на нее мышь.

Затем щелкните, чтобы увидеть метеонаблюдения и метеопрогнозы.

Управление картой: чтобы увеличить масштаб, щелкните зеленые кнопки с черным крестиком; чтобы уменьшить масштаб, щелкните зеленую кнопку с тире; для просмотра соседних карт щелкайте зеленые стрелки.


METAR-TAF: